地図

経路データ

SID SEASON NUMBER BASIN SUBBASIN NAME ISO_TIME NATURE LAT LON WMO_WIND WMO_PRES WMO_AGENCY TRACK_TYPE DIST2LAND LANDFALL IFLAG USA_AGENCY USA_ATCF_ID USA_LAT USA_LON USA_RECORD USA_STATUS USA_WIND USA_PRES USA_SSHS USA_R34_NE USA_R34_SE USA_R34_SW USA_R34_NW USA_R50_NE USA_R50_SE USA_R50_SW USA_R50_NW USA_R64_NE USA_R64_SE USA_R64_SW USA_R64_NW USA_POCI USA_ROCI USA_RMW USA_EYE TOKYO_LAT TOKYO_LON TOKYO_GRADE TOKYO_WIND TOKYO_PRES TOKYO_R50_DIR TOKYO_R50_LONG TOKYO_R50_SHORT TOKYO_R30_DIR TOKYO_R30_LONG TOKYO_R30_SHORT TOKYO_LAND CMA_LAT CMA_LON CMA_CAT CMA_WIND CMA_PRES HKO_LAT HKO_LON HKO_CAT HKO_WIND HKO_PRES NEWDELHI_LAT NEWDELHI_LON NEWDELHI_GRADE NEWDELHI_WIND NEWDELHI_PRES NEWDELHI_CI NEWDELHI_DP NEWDELHI_POCI REUNION_LAT REUNION_LON REUNION_TYPE REUNION_WIND REUNION_PRES REUNION_TNUM REUNION_CI REUNION_RMW REUNION_R34_NE REUNION_R34_SE REUNION_R34_SW REUNION_R34_NW REUNION_R50_NE REUNION_R50_SE REUNION_R50_SW REUNION_R50_NW REUNION_R64_NE REUNION_R64_SE REUNION_R64_SW REUNION_R64_NW BOM_LAT BOM_LON BOM_TYPE BOM_WIND BOM_PRES BOM_TNUM BOM_CI BOM_RMW BOM_R34_NE BOM_R34_SE BOM_R34_SW BOM_R34_NW BOM_R50_NE BOM_R50_SE BOM_R50_SW BOM_R50_NW BOM_R64_NE BOM_R64_SE BOM_R64_SW BOM_R64_NW BOM_ROCI BOM_POCI BOM_EYE BOM_POS_METHOD BOM_PRES_METHOD NADI_LAT NADI_LON NADI_CAT NADI_WIND NADI_PRES WELLINGTON_LAT WELLINGTON_LON WELLINGTON_WIND WELLINGTON_PRES DS824_LAT DS824_LON DS824_STAGE DS824_WIND DS824_PRES TD9636_LAT TD9636_LON TD9636_STAGE TD9636_WIND TD9636_PRES TD9635_LAT TD9635_LON TD9635_WIND TD9635_PRES TD9635_ROCI NEUMANN_LAT NEUMANN_LON NEUMANN_CLASS NEUMANN_WIND NEUMANN_PRES MLC_LAT MLC_LON MLC_CLASS MLC_WIND MLC_PRES USA_GUST BOM_GUST BOM_GUST_PER REUNION_GUST REUNION_GUST_PER USA_SEAHGT USA_SEARAD_NE USA_SEARAD_SE USA_SEARAD_SW USA_SEARAD_NW STORM_SPEED STORM_DIR
1960175N13115 1960 32 WP MM NOT_NAMED 1960-06-22 18:00:00 TS 12.7000 115.000 main 497 497 __O___________ -1 12.7000 115.000 0 1006 7 265
1960175N13115 1960 32 WP MM NOT_NAMED 1960-06-22 21:00:00 TS 12.6724 114.658 main 518 510 __P___________ -1 12.6724 114.658 0 1006 8 263
1960175N13115 1960 32 WP MM NOT_NAMED 1960-06-23 00:00:00 TS 12.6000 114.200 main 510 445 __O___________ -1 12.6000 114.200 0 1006 11 259
1960175N13115 1960 32 WP MM NOT_NAMED 1960-06-23 03:00:00 TS 12.4577 113.565 main 445 370 __P___________ -1 12.4577 113.565 0 1004 13 257
1960175N13115 1960 32 WP MM NOT_NAMED 1960-06-23 06:00:00 TS 12.3000 112.900 main 370 318 __O___________ -1 12.3000 112.900 0 1003 12 257
1960175N13115 1960 32 WP MM NOT_NAMED 1960-06-23 09:00:00 TS 12.1848 112.370 main 318 266 __P___________ -1 12.1848 112.370 0 1003 10 258
1960175N13115 1960 32 WP MM NOT_NAMED 1960-06-23 12:00:00 TS 12.1000 111.900 main 266 217 __O___________ -1 12.1000 111.900 0 1003 10 259
1960175N13115 1960 32 WP MM NOT_NAMED 1960-06-23 15:00:00 TS 11.9975 111.405 main 217 176 __P___________ -1 11.9975 111.405 0 1002 9 264
1960175N13115 1960 32 WP MM NOT_NAMED 1960-06-23 18:00:00 TS 12.0000 111.000 main 176 137 __O___________ -1 12.0000 111.000 0 1002 7 288
1960175N13115 1960 32 WP MM NOT_NAMED 1960-06-23 21:00:00 TS 12.2199 110.718 main 137 119 __P___________ -1 12.2199 110.718 0 1002 6 322
1960175N13115 1960 32 WP MM NOT_NAMED 1960-06-24 00:00:00 TS 12.5000 110.600 main 119 119 __O___________ -1 12.5000 110.600 0 1002 4 352
1960175N13115 1960 32 WP MM NOT_NAMED 1960-06-24 03:00:00 TS 12.6575 110.647 main 119 119 __P___________ -1 12.6575 110.647 0 1002 4 33
1960175N13115 1960 32 WP MM NOT_NAMED 1960-06-24 06:00:00 TS 12.8000 110.800 main 141 141 __O___________ -1 12.8000 110.800 0 1002 4 42
1960175N13115 1960 32 WP MM NOT_NAMED 1960-06-24 09:00:00 TS 12.9850 110.950 main 163 163 __P___________ -1 12.9850 110.950 0 1002 5 36
1960175N13115 1960 32 WP MM NOT_NAMED 1960-06-24 12:00:00 TS 13.2000 111.100 main 176 176 __O___________ -1 13.2000 111.100 0 1002 5 30
1960175N13115 1960 32 WP MM NOT_NAMED 1960-06-24 15:00:00 TS 13.4350 111.222 main 192 192 __P___________ -1 13.4350 111.222 0 1002 5 21
1960175N13115 1960 32 WP MM NOT_NAMED 1960-06-24 18:00:00 TS 13.7000 111.300 main 214 214 __O___________ -1 13.7000 111.300 0 1002 6 12
1960175N13115 1960 32 WP MM NOT_NAMED 1960-06-24 21:00:00 TS 13.9925 111.345 main 216 216 __P___________ -1 13.9925 111.345 0 1001 6 1
1960175N13115 1960 32 WP MM NOT_NAMED 1960-06-25 00:00:00 TS 14.3000 111.300 main 220 212 __O___________ -1 14.3000 111.300 0 17 1000 7 343
1960175N13115 1960 32 WP MM NOT_NAMED 1960-06-25 03:00:00 TS 14.6150 111.145 main 209 194 __P___________ -1 14.6150 111.145 0 17 1000 7 327
1960175N13115 1960 32 WP MM NOT_NAMED 1960-06-25 06:00:00 TS 14.9000 110.900 main 194 167 __O___________ -1 14.9000 110.900 0 17 1000 7 313
1960175N13115 1960 32 WP MM NOT_NAMED 1960-06-25 09:00:00 TS 15.0925 110.615 main 167 145 __P___________ -1 15.0925 110.615 0 17 1000 7 305
1960175N13115 1960 32 WP MM NOT_NAMED 1960-06-25 12:00:00 TS 15.3000 110.300 main 145 126 __O___________ -1 15.3000 110.300 0 17 1000 8 312
1960175N13115 1960 32 WP MM NOT_NAMED 1960-06-25 15:00:00 TS 15.6425 109.985 main 126 116 __P___________ -1 15.6425 109.985 0 20 1000 9 320
1960175N13115 1960 32 WP MM NOT_NAMED 1960-06-25 18:00:00 TS 16.0000 109.700 main 123 123 __O___________ -1 16.0000 109.700 1 23 1000 8 322
1960175N13115 1960 32 WP MM NOT_NAMED 1960-06-25 21:00:00 TS 16.2574 109.485 main 130 115 __P___________ -1 16.2574 109.485 1 21 1000 6 322
1960175N13115 1960 32 WP MM NOT_NAMED 1960-06-26 00:00:00 TS 16.5000 109.300 main 120 115 __O___________ -1 16.5000 109.300 0 19 1000 7 326
1960175N13115 1960 32 WP MM NOT_NAMED 1960-06-26 03:00:00 TS 16.8075 109.093 main 123 123 __P___________ -1 16.8075 109.093 0 18 1000 7 327
1960175N13115 1960 32 WP MM NOT_NAMED 1960-06-26 06:00:00 TS 17.1000 108.900 main 131 124 __O___________ -1 17.1000 108.900 0 17 1000 6 327
1960175N13115 1960 32 WP MM NOT_NAMED 1960-06-26 09:00:00 TS 17.3074 108.750 main 127 109 __P___________ -1 17.3074 108.750 0 17 1000 5 325
1960175N13115 1960 32 WP MM NOT_NAMED 1960-06-26 12:00:00 TS 17.5000 108.600 main 109 91 __O___________ -1 17.5000 108.600 0 17 1000 5 322
1960175N13115 1960 32 WP MM NOT_NAMED 1960-06-26 15:00:00 TS 17.7200 108.407 main 94 76 __P___________ -1 17.7200 108.407 0 1000 6 323
1960175N13115 1960 32 WP MM NOT_NAMED 1960-06-26 18:00:00 TS 18.0000 108.200 main 76 67 __O___________ -1 18.0000 108.200 0 1000 8 330
1960175N13115 1960 32 WP MM NOT_NAMED 1960-06-26 21:00:00 TS 18.3700 108.007 main 74 73 __P___________ -1 18.3700 108.007 0 1001 9 335
1960175N13115 1960 32 WP MM NOT_NAMED 1960-06-27 00:00:00 TS 18.8000 107.800 main 94 94 __O___________ -1 18.8000 107.800 0 1002 10 334
1960175N13115 1960 32 WP MM NOT_NAMED 1960-06-27 03:00:00 TS 19.2476 107.560 main 105 99 __P___________ -1 19.2476 107.560 0 1002 10 332
1960175N13115 1960 32 WP MM NOT_NAMED 1960-06-27 06:00:00 TS 19.7000 107.300 main 99 __O___________ -1 19.7000 107.300 0 1002 10 332

デジタル台風データ・検索

IBTrACS Databaseについて

本データベースは、米国NOAAが公開する1842年以降の世界の熱帯低気圧のベストトラックデータアーカイブInternational Best Track Archive for Climate Stewardship (IBTrACS)を、ウェブで閲覧しやすい形式に変換したものです。

最終更新日:2021-12-03